Lake City, Kansas
Current Conditions -  °F | °C
As of 3:55 AM on Wednesday 26 Nov 2014 (Local Time) from KPTT Reporting Station
Broken Clouds Broken Clouds  
Wind Chill: 37°   Ceiling: 9000
Heat Index: 43°   Visibility: 10mi
Dew Point: 30°   Wind: 10mph
Humidity: 61%   Direction: 320°NW
Pressure: 30.04"   Gusts: NA
Location:  37.36°N, 98.82°W
Report Text: KPTT 260955Z AUTO 32009KT 10SM BKN090 BKN110 06/M01 A3004 RMK AO2
Loading
Personal Weather Stations






























Interactive Weather Map New forecast layout! Learn more

10-Day Weather Forecast

Advertisements
Track Severe Weather on mobile